createdAt,value
2018-08-12T05:45:20.997Z,1021.12
2018-08-12T05:46:47.792Z,1021.11
2018-08-12T05:48:14.882Z,1021.11
2018-08-12T05:49:42.306Z,1021.10
2018-08-12T05:51:09.985Z,1021.09
2018-08-12T05:52:37.195Z,1021.08
2018-08-12T05:54:04.751Z,1021.07
2018-08-12T05:55:32.140Z,1021.09
2018-08-12T05:56:59.588Z,1021.09
2018-08-12T05:58:27.089Z,1021.10
2018-08-12T05:59:54.521Z,1021.09
2018-08-12T06:01:22.021Z,1021.05
2018-08-12T06:02:49.504Z,1021.03
2018-08-12T06:04:16.614Z,1021.05
2018-08-12T06:05:44.225Z,1021.07
2018-08-12T06:07:11.651Z,1021.06
2018-08-12T06:08:38.672Z,1021.07
2018-08-12T06:10:06.137Z,1021.04
2018-08-12T06:11:33.421Z,1020.97
2018-08-12T06:13:01.054Z,1020.95
2018-08-12T06:14:28.519Z,1020.93
2018-08-12T06:15:55.910Z,1020.96
2018-08-12T06:17:22.911Z,1020.94
2018-08-12T06:18:49.942Z,1020.92
2018-08-12T06:20:16.881Z,1020.95
2018-08-12T06:21:44.392Z,1020.95
2018-08-12T06:23:11.791Z,1020.98
2018-08-12T06:24:39.261Z,1021.04
2018-08-12T06:26:06.764Z,1020.99
2018-08-12T06:27:34.441Z,1020.97
2018-08-12T06:29:01.866Z,1020.97
2018-08-12T06:30:29.509Z,1020.96
2018-08-12T06:31:56.969Z,1020.97
2018-08-12T06:33:24.423Z,1020.97
2018-08-12T06:34:51.815Z,1020.99
2018-08-12T06:36:19.087Z,1021.02
2018-08-12T06:37:46.162Z,1020.99
2018-08-12T06:39:13.725Z,1021.01
2018-08-12T06:40:48.981Z,1021.02
2018-08-12T06:42:08.135Z,1020.99
2018-08-12T06:43:35.529Z,1020.98
2018-08-12T06:45:02.924Z,1020.97
2018-08-12T06:46:30.151Z,1020.97
2018-08-12T06:47:57.414Z,1020.96
2018-08-12T06:49:24.367Z,1020.96
2018-08-12T06:50:51.846Z,1020.95
2018-08-12T06:52:18.490Z,1020.91
2018-08-12T06:53:45.175Z,1020.92
2018-08-12T06:55:13.819Z,1020.88
2018-08-12T06:56:39.192Z,1020.88
2018-08-12T06:58:06.582Z,1020.84
2018-08-12T06:59:34.033Z,1020.82
2018-08-12T07:01:00.312Z,1020.83
2018-08-12T07:02:27.838Z,1020.81
2018-08-12T07:03:55.317Z,1020.83
2018-08-12T07:05:22.649Z,1020.78
2018-08-12T07:06:49.844Z,1020.76
2018-08-12T07:08:16.577Z,1020.79
2018-08-12T07:09:44.303Z,1020.74
2018-08-12T07:11:11.046Z,1020.76
2018-08-12T07:12:38.495Z,1020.79
2018-08-12T07:14:05.334Z,1020.82
2018-08-12T07:15:32.868Z,1020.84
2018-08-12T07:17:00.385Z,1020.81
2018-08-12T07:18:27.900Z,1020.77
2018-08-12T07:19:55.354Z,1020.76
2018-08-12T07:21:22.841Z,1020.75
2018-08-12T07:22:50.422Z,1020.74
2018-08-12T07:24:16.846Z,1020.75
2018-08-12T07:25:44.442Z,1020.76
2018-08-12T07:27:11.726Z,1020.73
2018-08-12T07:28:39.365Z,1020.74
2018-08-12T07:30:06.761Z,1020.74
2018-08-12T07:31:34.142Z,1020.76
2018-08-12T07:33:01.737Z,1020.76
2018-08-12T07:34:29.344Z,1020.74
2018-08-12T07:35:56.775Z,1020.74
2018-08-12T07:37:23.918Z,1020.73
2018-08-12T07:38:51.405Z,1020.68
2018-08-12T07:40:18.554Z,1020.67
2018-08-12T07:41:46.055Z,1020.66
2018-08-12T07:43:13.588Z,1020.65
2018-08-12T07:44:41.035Z,1020.63
2018-08-12T07:46:08.563Z,1020.60
2018-08-12T07:47:35.919Z,1020.62
2018-08-12T07:49:03.509Z,1020.59
2018-08-12T07:50:31.186Z,1020.57
2018-08-12T07:51:58.568Z,1020.54
2018-08-12T07:53:26.271Z,1020.53
2018-08-12T07:54:52.934Z,1020.55
2018-08-12T07:56:20.409Z,1020.49
2018-08-12T07:57:47.535Z,1020.46
2018-08-12T07:59:15.279Z,1020.48
2018-08-12T08:00:42.456Z,1020.47
2018-08-12T08:02:10.053Z,1020.48
2018-08-12T08:03:37.453Z,1020.46
2018-08-12T08:05:05.013Z,1020.43
2018-08-12T08:06:32.612Z,1020.44
2018-08-12T08:07:59.584Z,1020.42
2018-08-12T08:09:27.124Z,1020.40
2018-08-12T08:10:54.136Z,1020.42
2018-08-12T08:12:21.766Z,1020.42
2018-08-12T08:13:49.137Z,1020.40
2018-08-12T08:15:16.686Z,1020.42
2018-08-12T08:16:44.073Z,1020.36
2018-08-12T08:18:11.823Z,1020.36
2018-08-12T08:19:39.277Z,1020.30
2018-08-12T08:21:06.885Z,1020.27
2018-08-12T08:22:34.385Z,1020.26
2018-08-12T08:24:01.830Z,1020.23
2018-08-12T08:25:29.474Z,1020.28
2018-08-12T08:26:56.811Z,1020.23
2018-08-12T08:28:24.176Z,1020.19
2018-08-12T08:29:51.605Z,1020.19
2018-08-12T08:31:19.014Z,1020.14
2018-08-12T08:32:46.707Z,1020.13
2018-08-12T08:34:14.349Z,1020.11
2018-08-12T08:35:41.957Z,1020.10
2018-08-12T08:37:09.262Z,1020.10
2018-08-12T08:38:36.857Z,1020.06
2018-08-12T08:40:04.397Z,1020.08
2018-08-12T08:41:31.730Z,1020.09
2018-08-12T08:42:58.725Z,1020.09
2018-08-12T08:44:26.278Z,1020.10
2018-08-12T08:45:53.697Z,1020.09
2018-08-12T08:47:21.148Z,1020.08
2018-08-12T08:48:49.624Z,1020.05
2018-08-12T08:50:16.091Z,1019.99
2018-08-12T08:51:43.571Z,1020.03
2018-08-12T08:53:11.216Z,1020.05
2018-08-12T08:54:38.331Z,1020.05
2018-08-12T08:56:05.933Z,1020.00
2018-08-12T08:57:33.456Z,1019.98
2018-08-12T08:59:00.817Z,1019.97
2018-08-12T09:00:28.528Z,1019.92
2018-08-12T09:01:56.022Z,1019.92
2018-08-12T09:03:23.432Z,1019.93
2018-08-12T09:04:50.273Z,1019.93
2018-08-12T09:06:17.226Z,1019.86
2018-08-12T09:07:44.680Z,1019.89
2018-08-12T09:09:11.535Z,1019.85
2018-08-12T09:10:38.966Z,1019.84
2018-08-12T09:12:05.571Z,1019.84
2018-08-12T09:13:33.019Z,1019.84
2018-08-12T09:14:59.378Z,1019.85
2018-08-12T09:16:27.004Z,1019.82
2018-08-12T09:17:53.605Z,1019.77
2018-08-12T09:19:21.322Z,1019.72
2018-08-12T09:20:47.883Z,1019.71
2018-08-12T09:22:15.536Z,1019.73
2018-08-12T09:23:42.993Z,1019.69
2018-08-12T09:25:09.240Z,1019.64
2018-08-12T09:26:36.921Z,1019.63
2018-08-12T09:28:04.490Z,1019.59
2018-08-12T09:29:32.168Z,1019.60
2018-08-12T09:30:58.847Z,1019.55
2018-08-12T09:32:26.376Z,1019.57
2018-08-12T09:33:53.536Z,1019.54
2018-08-12T09:35:20.141Z,1019.51
2018-08-12T09:36:47.706Z,1019.51
2018-08-12T09:38:14.637Z,1019.51
2018-08-12T09:39:42.073Z,1019.45
2018-08-12T09:41:09.816Z,1019.46
2018-08-12T09:42:37.300Z,1019.36
2018-08-12T09:44:04.919Z,1019.39
2018-08-12T09:45:32.521Z,1019.43
2018-08-12T09:47:00.070Z,1019.45
2018-08-12T09:48:27.670Z,1019.44
2018-08-12T09:49:55.255Z,1019.49
2018-08-12T09:51:22.892Z,1019.47
2018-08-12T09:52:50.354Z,1019.47
2018-08-12T09:54:17.302Z,1019.40
2018-08-12T09:55:44.971Z,1019.40
2018-08-12T09:57:11.987Z,1019.41
2018-08-12T09:58:39.683Z,1019.43
2018-08-12T10:00:07.535Z,1019.42
2018-08-12T10:01:35.013Z,1019.41
2018-08-12T10:03:02.496Z,1019.40
2018-08-12T10:04:30.166Z,1019.35
2018-08-12T10:05:57.681Z,1019.37
2018-08-12T10:07:25.139Z,1019.36
2018-08-12T10:08:52.572Z,1019.31
2018-08-12T10:10:20.059Z,1019.31
2018-08-12T10:11:47.050Z,1019.24
2018-08-12T10:13:14.518Z,1019.27
2018-08-12T10:14:42.094Z,1019.23
2018-08-12T10:16:09.674Z,1019.24
2018-08-12T10:17:36.576Z,1019.23
2018-08-12T10:19:04.059Z,1019.21
2018-08-12T10:20:30.467Z,1019.24
2018-08-12T10:21:57.793Z,1019.20
2018-08-12T10:23:25.263Z,1019.14
2018-08-12T10:24:52.926Z,1019.09
2018-08-12T10:26:20.432Z,1019.07
2018-08-12T10:27:47.813Z,1019.10
2018-08-12T10:29:15.421Z,1019.10
2018-08-12T10:30:41.988Z,1019.06
2018-08-12T10:32:09.422Z,1019.08
2018-08-12T10:33:36.976Z,1019.09
2018-08-12T10:35:04.558Z,1019.05
2018-08-12T10:36:31.438Z,1019.05
2018-08-12T10:37:58.958Z,1019.04
2018-08-12T10:39:26.428Z,1019.09
2018-08-12T10:40:53.694Z,1019.04
2018-08-12T10:42:21.117Z,1019.04
2018-08-12T10:43:48.753Z,1018.99
2018-08-12T10:45:15.252Z,1018.98
2018-08-12T10:46:42.851Z,1019.03
2018-08-12T10:48:09.697Z,1018.97
2018-08-12T10:49:37.192Z,1018.94
2018-08-12T10:51:04.520Z,1018.90
2018-08-12T10:52:31.991Z,1018.87
2018-08-12T10:53:59.814Z,1018.87
2018-08-12T10:55:27.368Z,1018.86
2018-08-12T10:56:54.652Z,1018.79
2018-08-12T10:58:21.660Z,1018.88
2018-08-12T10:59:48.972Z,1018.83
2018-08-12T11:01:16.271Z,1018.86
2018-08-12T11:02:44.023Z,1018.82
2018-08-12T11:04:11.619Z,1018.82
2018-08-12T11:05:39.143Z,1018.81
2018-08-12T11:07:05.894Z,1018.82
2018-08-12T11:08:33.009Z,1018.84
2018-08-12T11:10:00.666Z,1018.84
2018-08-12T11:11:27.526Z,1018.86
2018-08-12T11:12:55.035Z,1018.86
2018-08-12T11:14:22.647Z,1018.80
2018-08-12T11:15:50.234Z,1018.74
2018-08-12T11:17:17.725Z,1018.72
2018-08-12T11:18:45.249Z,1018.69
2018-08-12T11:20:13.024Z,1018.65
2018-08-12T11:21:40.685Z,1018.62
2018-08-12T11:23:08.150Z,1018.57
2018-08-12T11:24:35.909Z,1018.62
2018-08-12T11:26:03.314Z,1018.64
2018-08-12T11:27:30.020Z,1018.66
2018-08-12T11:28:57.767Z,1018.63
2018-08-12T11:30:24.751Z,1018.58
2018-08-12T11:31:52.502Z,1018.54
2018-08-12T11:33:19.475Z,1018.60
2018-08-12T11:34:47.105Z,1018.61
2018-08-12T11:36:14.463Z,1018.56
2018-08-12T11:37:41.073Z,1018.54
2018-08-12T11:39:08.476Z,1018.52
2018-08-12T11:40:36.157Z,1018.49
2018-08-12T11:42:03.304Z,1018.46
2018-08-12T11:43:30.884Z,1018.38
2018-08-12T11:44:58.310Z,1018.31
2018-08-12T11:46:25.887Z,1018.31
2018-08-12T11:47:53.424Z,1018.31
2018-08-12T11:49:20.746Z,1018.25
2018-08-12T11:50:48.187Z,1018.26
2018-08-12T11:52:15.503Z,1018.22
2018-08-12T11:53:42.618Z,1018.19
2018-08-12T11:55:10.240Z,1018.23
2018-08-12T11:56:37.917Z,1018.15
2018-08-12T11:58:05.273Z,1018.20
2018-08-12T11:59:33.119Z,1018.15
2018-08-12T12:01:00.743Z,1018.12
2018-08-12T12:02:28.393Z,1018.12
2018-08-12T12:03:56.000Z,1018.11
2018-08-12T12:05:23.694Z,1018.08
2018-08-12T12:06:51.217Z,1018.00
2018-08-12T12:08:18.807Z,1017.98
2018-08-12T12:09:45.792Z,1017.99
2018-08-12T12:11:13.468Z,1017.93
2018-08-12T12:12:41.056Z,1017.91
2018-08-12T12:14:08.490Z,1017.88
2018-08-12T12:15:36.101Z,1017.84
2018-08-12T12:17:03.568Z,1017.84
2018-08-12T12:18:31.357Z,1017.83
2018-08-12T12:19:58.809Z,1017.80
2018-08-12T12:21:26.526Z,1017.78
2018-08-12T12:22:53.972Z,1017.73
2018-08-12T12:24:21.524Z,1017.80
2018-08-12T12:25:48.954Z,1017.77
2018-08-12T12:27:16.578Z,1017.75
2018-08-12T12:28:44.220Z,1017.76
2018-08-12T12:30:11.882Z,1017.77
2018-08-12T12:31:39.482Z,1017.77
2018-08-12T12:33:06.972Z,1017.76
2018-08-12T12:34:34.739Z,1017.75
2018-08-12T12:36:02.178Z,1017.69
2018-08-12T12:37:29.836Z,1017.67
2018-08-12T12:38:57.377Z,1017.65
2018-08-12T12:40:24.991Z,1017.70
2018-08-12T12:41:52.697Z,1017.67
2018-08-12T12:43:19.954Z,1017.60
2018-08-12T12:44:47.325Z,1017.60
2018-08-12T12:46:14.971Z,1017.59
2018-08-12T12:47:41.863Z,1017.57
2018-08-12T12:49:09.497Z,1017.48
2018-08-12T12:50:37.185Z,1017.45
2018-08-12T12:52:04.792Z,1017.41
2018-08-12T12:53:31.393Z,1017.41
2018-08-12T12:54:59.090Z,1017.41
2018-08-12T12:56:26.766Z,1017.37
2018-08-12T12:57:53.667Z,1017.39
2018-08-12T12:59:21.246Z,1017.30
2018-08-12T13:00:48.520Z,1017.29
2018-08-12T13:02:15.836Z,1017.31
2018-08-12T13:03:43.468Z,1017.26
2018-08-12T13:05:11.156Z,1017.27
2018-08-12T13:06:38.898Z,1017.25
2018-08-12T13:08:06.537Z,1017.25
2018-08-12T13:09:34.130Z,1017.20
2018-08-12T13:11:01.778Z,1017.14
2018-08-12T13:12:29.192Z,1017.10
2018-08-12T13:13:56.844Z,1017.12
2018-08-12T13:15:23.601Z,1017.13
2018-08-12T13:16:51.225Z,1017.09
2018-08-12T13:18:18.688Z,1017.08
2018-08-12T13:19:46.306Z,1017.09
2018-08-12T13:21:13.934Z,1017.08
2018-08-12T13:22:41.609Z,1017.08
2018-08-12T13:24:09.302Z,1017.09
2018-08-12T13:25:36.316Z,1017.05
2018-08-12T13:27:03.826Z,1017.06
2018-08-12T13:28:31.361Z,1017.07
2018-08-12T13:29:58.229Z,1017.05
2018-08-12T13:31:25.774Z,1017.07
2018-08-12T13:32:53.205Z,1017.04
2018-08-12T13:34:20.788Z,1017.05
2018-08-12T13:35:48.403Z,1017.05
2018-08-12T13:37:15.851Z,1017.02
2018-08-12T13:38:43.358Z,1017.01
2018-08-12T13:40:10.787Z,1016.98
2018-08-12T13:41:38.663Z,1016.95
2018-08-12T13:43:06.252Z,1016.96
2018-08-12T13:44:32.893Z,1016.90
2018-08-12T13:46:00.479Z,1016.87
2018-08-12T13:47:28.317Z,1016.86
2018-08-12T13:48:55.925Z,1016.83
2018-08-12T13:50:22.820Z,1016.83
2018-08-12T13:51:50.511Z,1016.82
2018-08-12T13:53:18.239Z,1016.84
2018-08-12T13:54:45.552Z,1016.79
2018-08-12T13:56:13.257Z,1016.84
2018-08-12T13:57:40.129Z,1016.80
2018-08-12T13:59:07.878Z,1016.79
2018-08-12T14:00:36.087Z,1016.75
2018-08-12T14:02:02.856Z,1016.75
2018-08-12T14:03:30.373Z,1016.72
2018-08-12T14:04:57.173Z,1016.70
2018-08-12T14:06:24.799Z,1016.68
2018-08-12T14:07:52.437Z,1016.64
2018-08-12T14:09:20.023Z,1016.64
2018-08-12T14:10:47.205Z,1016.60
2018-08-12T14:12:14.853Z,1016.62
2018-08-12T14:13:42.603Z,1016.60
2018-08-12T14:15:10.210Z,1016.58
2018-08-12T14:16:37.398Z,1016.59
2018-08-12T14:18:05.069Z,1016.57
2018-08-12T14:19:32.750Z,1016.58
2018-08-12T14:21:00.375Z,1016.56
2018-08-12T14:22:26.545Z,1016.55
2018-08-12T14:23:53.359Z,1016.54
2018-08-12T14:25:20.416Z,1016.54
2018-08-12T14:26:47.859Z,1016.52
2018-08-12T14:28:15.300Z,1016.48
2018-08-12T14:29:42.986Z,1016.45
2018-08-12T14:31:10.483Z,1016.45
2018-08-12T14:32:37.972Z,1016.46
2018-08-12T14:34:05.063Z,1016.45
2018-08-12T14:35:32.094Z,1016.47
2018-08-12T14:36:59.607Z,1016.45
2018-08-12T14:38:26.613Z,1016.46
2018-08-12T14:39:54.218Z,1016.46
2018-08-12T14:41:21.761Z,1016.44
2018-08-12T14:42:49.306Z,1016.44
2018-08-12T14:44:16.612Z,1016.44
2018-08-12T14:45:44.188Z,1016.46
2018-08-12T14:47:11.804Z,1016.48
2018-08-12T14:48:38.826Z,1016.47
2018-08-12T14:50:05.959Z,1016.45
2018-08-12T14:51:32.548Z,1016.44
2018-08-12T14:53:00.236Z,1016.40
2018-08-12T14:54:27.715Z,1016.40
2018-08-12T14:55:54.396Z,1016.38
2018-08-12T14:57:22.049Z,1016.37
2018-08-12T14:58:49.218Z,1016.33
2018-08-12T15:00:16.527Z,1016.30
2018-08-12T15:01:44.029Z,1016.34
2018-08-12T15:03:11.596Z,1016.30
2018-08-12T15:04:39.229Z,1016.30
2018-08-12T15:06:06.744Z,1016.29
2018-08-12T15:07:34.376Z,1016.27
2018-08-12T15:09:00.571Z,1016.23
2018-08-12T15:10:28.227Z,1016.25
2018-08-12T15:11:55.353Z,1016.23
2018-08-12T15:13:22.930Z,1016.18
2018-08-12T15:14:50.453Z,1016.15
2018-08-12T15:16:17.704Z,1016.16
2018-08-12T15:17:45.234Z,1016.14
2018-08-12T15:19:12.981Z,1016.13
2018-08-12T15:20:39.859Z,1016.13
2018-08-12T15:22:07.537Z,1016.13
2018-08-12T15:23:34.346Z,1016.13
2018-08-12T15:25:01.905Z,1016.10
2018-08-12T15:26:29.330Z,1016.11
2018-08-12T15:27:57.023Z,1016.10
2018-08-12T15:29:24.410Z,1016.07
2018-08-12T15:30:51.951Z,1016.07
2018-08-12T15:32:18.273Z,1016.04
2018-08-12T15:33:45.788Z,1016.03
2018-08-12T15:35:13.303Z,1016.00
2018-08-12T15:36:40.701Z,1016.04
2018-08-12T15:38:07.749Z,1016.00
2018-08-12T15:39:35.384Z,1015.97
2018-08-12T15:41:02.870Z,1015.96
2018-08-12T15:42:30.653Z,1015.97
2018-08-12T15:43:58.041Z,1015.93
2018-08-12T15:45:25.486Z,1015.93
2018-08-12T15:46:53.177Z,1015.92
2018-08-12T15:48:20.184Z,1015.92
2018-08-12T15:49:47.824Z,1015.90
2018-08-12T15:51:15.037Z,1015.88
2018-08-12T15:52:41.764Z,1015.90
2018-08-12T15:54:09.321Z,1015.89
2018-08-12T15:55:36.738Z,1015.88
2018-08-12T15:57:04.535Z,1015.88
2018-08-12T15:58:31.021Z,1015.88
2018-08-12T15:59:58.548Z,1015.89
2018-08-12T16:01:26.082Z,1015.87
2018-08-12T16:02:53.714Z,1015.86
2018-08-12T16:04:21.295Z,1015.84
2018-08-12T16:05:48.767Z,1015.84
2018-08-12T16:07:16.156Z,1015.83
2018-08-12T16:08:43.707Z,1015.81
2018-08-12T16:10:11.337Z,1015.80
2018-08-12T16:11:39.024Z,1015.79
2018-08-12T16:13:06.428Z,1015.77
2018-08-12T16:14:34.026Z,1015.77
2018-08-12T16:16:01.794Z,1015.77
2018-08-12T16:17:28.383Z,1015.78
2018-08-12T16:18:55.196Z,1015.80
2018-08-12T16:20:22.660Z,1015.80
2018-08-12T16:21:50.170Z,1015.79
2018-08-12T16:23:17.237Z,1015.76
2018-08-12T16:24:44.817Z,1015.75
2018-08-12T16:26:11.440Z,1015.74
2018-08-12T16:27:38.238Z,1015.71
2018-08-12T16:29:06.084Z,1015.68
2018-08-12T16:30:32.547Z,1015.67
2018-08-12T16:31:59.088Z,1015.66
2018-08-12T16:33:25.715Z,1015.68
2018-08-12T16:34:53.320Z,1015.66
2018-08-12T16:36:20.886Z,1015.68
2018-08-12T16:37:47.878Z,1015.65
2018-08-12T16:39:15.330Z,1015.65
2018-08-12T16:40:43.143Z,1015.63
2018-08-12T16:42:10.475Z,1015.61
2018-08-12T16:43:37.910Z,1015.61
2018-08-12T16:45:05.572Z,1015.58
2018-08-12T16:46:33.285Z,1015.55
2018-08-12T16:47:59.657Z,1015.52
2018-08-12T16:49:27.153Z,1015.50
2018-08-12T16:50:54.340Z,1015.49
2018-08-12T16:52:21.001Z,1015.48
2018-08-12T16:53:47.959Z,1015.47
2018-08-12T16:55:14.467Z,1015.47
2018-08-12T16:56:42.159Z,1015.46
2018-08-12T16:58:09.678Z,1015.45
2018-08-12T16:59:37.262Z,1015.45
2018-08-12T17:01:04.811Z,1015.43
2018-08-12T17:02:32.457Z,1015.43
2018-08-12T17:04:00.000Z,1015.41
2018-08-12T17:05:27.571Z,1015.41
2018-08-12T17:06:55.104Z,1015.40
2018-08-12T17:08:22.546Z,1015.40
2018-08-12T17:09:49.319Z,1015.38
2018-08-12T17:11:16.818Z,1015.35
2018-08-12T17:12:44.252Z,1015.33
2018-08-12T17:14:11.990Z,1015.28
2018-08-12T17:15:38.560Z,1015.30
2018-08-12T17:17:06.277Z,1015.32
2018-08-12T17:18:33.913Z,1015.33
2018-08-12T17:20:01.457Z,1015.33
2018-08-12T17:21:29.056Z,1015.33
2018-08-12T17:22:55.515Z,1015.33
2018-08-12T17:24:22.953Z,1015.31
2018-08-12T17:25:50.652Z,1015.25
2018-08-12T17:27:18.185Z,1015.23
2018-08-12T17:28:45.401Z,1015.24
2018-08-12T17:30:12.943Z,1015.24
2018-08-12T17:31:39.037Z,1015.26
2018-08-12T17:33:06.753Z,1015.27
2018-08-12T17:34:34.305Z,1015.27
2018-08-12T17:36:01.976Z,1015.31
2018-08-12T17:37:29.437Z,1015.29
2018-08-12T17:38:57.023Z,1015.28
2018-08-12T17:40:24.517Z,1015.31
2018-08-12T17:41:52.135Z,1015.30
2018-08-12T17:43:18.572Z,1015.28
2018-08-12T17:44:45.996Z,1015.28
2018-08-12T17:46:13.587Z,1015.27
2018-08-12T17:47:39.810Z,1015.26
2018-08-12T17:49:07.201Z,1015.25
2018-08-12T17:50:34.827Z,1015.25
2018-08-12T17:52:02.413Z,1015.24
2018-08-12T17:53:28.923Z,1015.21
2018-08-12T17:54:56.375Z,1015.23
2018-08-12T17:56:22.688Z,1015.23
2018-08-12T17:57:49.173Z,1015.24
2018-08-12T17:59:16.156Z,1015.23
2018-08-12T18:00:43.664Z,1015.23
2018-08-12T18:02:11.302Z,1015.22
2018-08-12T18:03:37.954Z,1015.23
2018-08-12T18:05:05.376Z,1015.21
2018-08-12T18:06:32.924Z,1015.18
2018-08-12T18:07:59.350Z,1015.19
2018-08-12T18:09:25.821Z,1015.16
2018-08-12T18:10:52.482Z,1015.18
2018-08-12T18:12:20.150Z,1015.16
2018-08-12T18:13:47.605Z,1015.14
2018-08-12T18:15:14.925Z,1015.13
2018-08-12T18:16:42.512Z,1015.12
2018-08-12T18:18:10.133Z,1015.11
2018-08-12T18:19:37.775Z,1015.11
2018-08-12T18:21:05.276Z,1015.11
2018-08-12T18:22:32.909Z,1015.11
2018-08-12T18:24:00.536Z,1015.14
2018-08-12T18:25:27.974Z,1015.15
2018-08-12T18:26:54.600Z,1015.12
2018-08-12T18:28:21.263Z,1015.12
2018-08-12T18:29:48.029Z,1015.09
2018-08-12T18:31:14.256Z,1015.10
2018-08-12T18:32:40.457Z,1015.09
2018-08-12T18:34:06.919Z,1015.10
2018-08-12T18:35:34.554Z,1015.09
2018-08-12T18:37:02.144Z,1015.13
2018-08-12T18:38:28.622Z,1015.12
2018-08-12T18:39:54.767Z,1015.12
2018-08-12T18:41:22.109Z,1015.14
2018-08-12T18:42:49.648Z,1015.14
2018-08-12T18:44:17.048Z,1015.17
2018-08-12T18:45:44.751Z,1015.18
2018-08-12T18:47:12.037Z,1015.19
2018-08-12T18:48:39.569Z,1015.20
2018-08-12T18:50:06.215Z,1015.15
2018-08-12T18:51:32.593Z,1015.15
2018-08-12T18:53:00.104Z,1015.16
2018-08-12T18:54:27.548Z,1015.17
2018-08-12T18:55:55.078Z,1015.16
2018-08-12T18:57:22.467Z,1015.14
2018-08-12T18:58:50.139Z,1015.15
2018-08-12T19:00:16.924Z,1015.12
2018-08-12T19:01:43.318Z,1015.09
2018-08-12T19:03:09.786Z,1015.11
2018-08-12T19:04:37.208Z,1015.11
2018-08-12T19:06:05.837Z,1015.12
2018-08-12T19:07:32.454Z,1015.13
2018-08-12T19:08:59.960Z,1015.12
2018-08-12T19:10:27.512Z,1015.11
2018-08-12T19:11:54.777Z,1015.13
2018-08-12T19:13:21.430Z,1015.11
2018-08-12T19:14:48.759Z,1015.12
2018-08-12T19:16:16.132Z,1015.11
2018-08-12T19:17:43.580Z,1015.13
2018-08-12T19:19:10.221Z,1015.11
2018-08-12T19:20:37.738Z,1015.11
2018-08-12T19:22:05.236Z,1015.09
2018-08-12T19:23:32.817Z,1015.07
2018-08-12T19:25:00.394Z,1015.06
2018-08-12T19:26:27.870Z,1015.04
2018-08-12T19:27:55.638Z,1015.01
2018-08-12T19:29:23.246Z,1015.02
2018-08-12T19:30:49.635Z,1015.02
2018-08-12T19:32:17.055Z,1015.03
2018-08-12T19:33:44.526Z,1015.00
2018-08-12T19:35:12.066Z,1014.97
2018-08-12T19:36:39.566Z,1014.95
2018-08-12T19:38:05.776Z,1014.93
2018-08-12T19:39:33.393Z,1014.95
2018-08-12T19:41:01.146Z,1014.95
2018-08-12T19:42:28.371Z,1015.01
2018-08-12T19:43:55.013Z,1015.05
2018-08-12T19:45:22.457Z,1015.06
2018-08-12T19:46:50.260Z,1015.05
2018-08-12T19:48:17.944Z,1015.01
2018-08-12T19:49:44.302Z,1014.99
2018-08-12T19:51:10.502Z,1014.99
2018-08-12T19:52:38.153Z,1014.99
2018-08-12T19:54:05.672Z,1014.97
2018-08-12T19:55:33.136Z,1014.94
2018-08-12T19:57:00.616Z,1014.96
2018-08-12T19:58:28.348Z,1014.95
2018-08-12T19:59:55.632Z,1014.91
2018-08-12T20:01:23.230Z,1014.91
2018-08-12T20:02:50.746Z,1014.92
2018-08-12T20:04:17.739Z,1014.92
2018-08-12T20:05:45.658Z,1014.92
2018-08-12T20:07:13.017Z,1014.91
2018-08-12T20:08:40.331Z,1014.91
2018-08-12T20:10:07.964Z,1014.88
2018-08-12T20:11:35.482Z,1014.87
2018-08-12T20:13:03.010Z,1014.85
2018-08-12T20:14:30.507Z,1014.84
2018-08-12T20:15:58.077Z,1014.84
2018-08-12T20:17:25.356Z,1014.82
2018-08-12T20:18:53.039Z,1014.80
2018-08-12T20:20:19.360Z,1014.79
2018-08-12T20:21:46.963Z,1014.76
2018-08-12T20:23:13.660Z,1014.76
2018-08-12T20:24:41.246Z,1014.77
2018-08-12T20:26:08.746Z,1014.75
2018-08-12T20:27:36.215Z,1014.76
2018-08-12T20:29:02.617Z,1014.74
2018-08-12T20:30:29.959Z,1014.74
2018-08-12T20:31:57.524Z,1014.72
2018-08-12T20:33:23.870Z,1014.71
2018-08-12T20:34:51.404Z,1014.72
2018-08-12T20:36:18.532Z,1014.68
2018-08-12T20:37:46.263Z,1014.66
2018-08-12T20:39:13.740Z,1014.64
2018-08-12T20:40:40.233Z,1014.65
2018-08-12T20:42:07.735Z,1014.62
2018-08-12T20:43:35.361Z,1014.59
2018-08-12T20:45:02.856Z,1014.58
2018-08-12T20:46:30.281Z,1014.57
2018-08-12T20:47:57.925Z,1014.56
2018-08-12T20:49:25.357Z,1014.54
2018-08-12T20:50:51.794Z,1014.54
2018-08-12T20:52:19.314Z,1014.54
2018-08-12T20:53:45.971Z,1014.53
2018-08-12T20:55:13.663Z,1014.50
2018-08-12T20:56:41.018Z,1014.49
2018-08-12T20:58:07.439Z,1014.46
2018-08-12T20:59:34.919Z,1014.48
2018-08-12T21:01:02.403Z,1014.48
2018-08-12T21:02:29.908Z,1014.47
2018-08-12T21:03:56.231Z,1014.46
2018-08-12T21:05:23.667Z,1014.45
2018-08-12T21:06:51.336Z,1014.45
2018-08-12T21:08:18.855Z,1014.47
2018-08-12T21:09:45.086Z,1014.47
2018-08-12T21:11:12.785Z,1014.48
2018-08-12T21:12:40.345Z,1014.49
2018-08-12T21:14:06.938Z,1014.49
2018-08-12T21:15:34.481Z,1014.49
2018-08-12T21:17:02.005Z,1014.48
2018-08-12T21:18:28.556Z,1014.50
2018-08-12T21:19:55.962Z,1014.49
2018-08-12T21:21:23.560Z,1014.47
2018-08-12T21:22:51.088Z,1014.47
2018-08-12T21:24:18.023Z,1014.48
2018-08-12T21:25:45.588Z,1014.48
2018-08-12T21:27:13.023Z,1014.50
2018-08-12T21:28:40.638Z,1014.49
2018-08-12T21:30:08.173Z,1014.48
2018-08-12T21:31:35.687Z,1014.45
2018-08-12T21:33:03.197Z,1014.43
2018-08-12T21:34:30.793Z,1014.41
2018-08-12T21:35:58.154Z,1014.39
2018-08-12T21:37:25.738Z,1014.38
2018-08-12T21:38:52.388Z,1014.38
2018-08-12T21:40:19.749Z,1014.38
2018-08-12T21:41:47.164Z,1014.38
2018-08-12T21:43:13.711Z,1014.38
2018-08-12T21:44:41.399Z,1014.37
2018-08-12T21:46:08.719Z,1014.33
2018-08-12T21:47:36.195Z,1014.34
2018-08-12T21:49:02.346Z,1014.33
2018-08-12T21:50:29.831Z,1014.31
2018-08-12T21:51:57.330Z,1014.33
2018-08-12T21:53:24.848Z,1014.31
2018-08-12T21:54:51.075Z,1014.31
2018-08-12T21:56:18.126Z,1014.30
2018-08-12T21:57:45.293Z,1014.31
2018-08-12T21:59:12.751Z,1014.32
2018-08-12T22:00:39.011Z,1014.30
2018-08-12T22:02:06.423Z,1014.31
2018-08-12T22:03:34.160Z,1014.27
2018-08-12T22:05:01.685Z,1014.28
2018-08-12T22:06:29.096Z,1014.29
2018-08-12T22:07:56.545Z,1014.30
2018-08-12T22:09:23.771Z,1014.28
2018-08-12T22:10:51.411Z,1014.28
2018-08-12T22:12:18.986Z,1014.24
2018-08-12T22:13:46.504Z,1014.24
2018-08-12T22:15:12.780Z,1014.24
2018-08-12T22:16:39.451Z,1014.25
2018-08-12T22:18:06.892Z,1014.23
2018-08-12T22:19:34.403Z,1014.22
2018-08-12T22:21:02.155Z,1014.22
2018-08-12T22:22:29.659Z,1014.21
2018-08-12T22:23:57.112Z,1014.22
2018-08-12T22:25:23.668Z,1014.20
2018-08-12T22:26:50.041Z,1014.17
2018-08-12T22:28:16.769Z,1014.18
2018-08-12T22:29:44.249Z,1014.18
2018-08-12T22:31:10.642Z,1014.19
2018-08-12T22:32:36.861Z,1014.19
2018-08-12T22:34:02.792Z,1014.20
2018-08-12T22:35:30.239Z,1014.16
2018-08-12T22:36:57.969Z,1014.15
2018-08-12T22:38:25.369Z,1014.14
2018-08-12T22:39:52.863Z,1014.13
2018-08-12T22:41:20.398Z,1014.13
2018-08-12T22:42:47.668Z,1014.13
2018-08-12T22:44:15.026Z,1014.13
2018-08-12T22:45:42.457Z,1014.12
2018-08-12T22:47:10.045Z,1014.12
2018-08-12T22:48:37.555Z,1014.11
2018-08-12T22:50:05.038Z,1014.10
2018-08-12T22:51:32.423Z,1014.10
2018-08-12T22:52:59.803Z,1014.08
2018-08-12T22:55:53.603Z,1014.05
2018-08-12T22:57:20.792Z,1014.04
2018-08-12T22:58:48.356Z,1014.01
2018-08-12T23:00:15.634Z,1014.00
2018-08-12T23:01:42.008Z,1013.99
2018-08-12T23:03:09.696Z,1013.97
2018-08-12T23:04:35.896Z,1013.95
2018-08-12T23:06:03.443Z,1013.93
2018-08-12T23:07:30.810Z,1013.93
2018-08-12T23:08:57.199Z,1013.89
2018-08-12T23:10:24.800Z,1013.87
2018-08-12T23:11:52.069Z,1013.88
2018-08-12T23:13:19.669Z,1013.85
2018-08-12T23:14:46.411Z,1013.86
2018-08-12T23:16:13.970Z,1013.85
2018-08-12T23:17:41.537Z,1013.87
2018-08-12T23:19:09.172Z,1013.86
2018-08-12T23:20:35.314Z,1013.83
2018-08-12T23:22:01.673Z,1013.82